Time;durP1;ratioP1;P1;durP2;ratioP2;P2;SDS_P1;SDS_P2;PMS_P1;PMS_P2;Temp;Humidity;BMP_temperature;BMP_pressure;BME280_temperature;BME280_humidity;BME280_pressure;Samples;Min_cycle;Max_cycle;Signal;HPM_P1;HPM_P2
2022/09/05 00:00:13;;;;;;;6.05;3.72;;;19.30;99.90;;;;;;5030211;28;20407;-68
2022/09/05 00:03:01;;;;;;;10.93;4.10;;;19.30;99.90;;;;;;5030912;28;20049;-67
2022/09/05 00:06:12;;;;;;;5.97;3.50;;;19.30;99.90;;;;;;5030998;28;20084;-68
2022/09/05 00:08:53;;;;;;;9.02;3.70;;;19.20;99.90;;;;;;5028939;28;20053;-68
2022/09/05 00:11:34;;;;;;;8.73;3.65;;;19.20;99.90;;;;;;5030193;28;20049;-68
2022/09/05 00:14:28;;;;;;;5.32;4.32;;;19.10;99.90;;;;;;5030806;28;20057;-67
2022/09/05 00:17:13;;;;;;;5.03;4.03;;;19.10;99.90;;;;;;5030131;28;20044;-68
2022/09/05 00:20:13;;;;;;;7.03;4.10;;;19.10;99.90;;;;;;5031089;28;20489;-67
2022/09/05 00:23:05;;;;;;;6.30;3.55;;;19.10;99.90;;;;;;5013321;28;20046;-68
2022/09/05 00:25:56;;;;;;;4.57;4.05;;;19.10;99.90;;;;;;5030941;28;20393;-67
2022/09/05 00:28:35;;;;;;;10.48;3.75;;;19.00;99.90;;;;;;5015002;28;20049;-67
2022/09/05 00:31:19;;;;;;;4.22;3.67;;;19.00;99.90;;;;;;5034015;28;20092;-68
2022/09/05 00:34:09;;;;;;;5.65;3.80;;;19.00;99.90;;;;;;5034496;28;20132;-68
2022/09/05 00:36:53;;;;;;;8.95;3.80;;;18.90;99.90;;;;;;5033296;28;20048;-68
2022/09/05 00:39:25;;;;;;;8.90;4.03;;;18.90;99.90;;;;;;5034701;28;20089;-68
2022/09/05 00:41:54;;;;;;;5.85;3.90;;;18.90;99.90;;;;;;5034698;28;20041;-68
2022/09/05 00:44:23;;;;;;;6.28;3.80;;;18.90;99.90;;;;;;5032820;28;20483;-67
2022/09/05 00:47:32;;;;;;;4.28;3.88;;;18.80;99.90;;;;;;5034521;28;20041;-68
2022/09/05 00:50:08;;;;;;;6.90;4.13;;;18.80;99.90;;;;;;5033321;28;20462;-68
2022/09/05 00:52:56;;;;;;;5.05;4.00;;;18.80;99.90;;;;;;5034390;28;20076;-68
2022/09/05 00:55:45;;;;;;;8.02;4.40;;;18.80;99.90;;;;;;5034029;28;20045;-68
2022/09/05 00:58:31;;;;;;;5.20;3.97;;;18.80;99.90;;;;;;5033011;28;20042;-68
2022/09/05 01:00:58;;;;;;;7.00;4.28;;;18.80;99.90;;;;;;5032620;28;20037;-68
2022/09/05 01:04:15;;;;;;;7.68;4.07;;;18.70;99.90;;;;;;5033936;28;20029;-68
2022/09/05 01:07:02;;;;;;;6.25;4.05;;;18.70;99.90;;;;;;5033782;28;20488;-68
2022/09/05 01:09:28;;;;;;;6.25;4.15;;;18.70;99.90;;;;;;5032869;28;20529;-68
2022/09/05 01:12:13;;;;;;;6.72;3.97;;;18.60;99.90;;;;;;5032524;28;20049;-68
2022/09/05 01:15:04;;;;;;;5.22;3.70;;;18.60;99.90;;;;;;5033536;28;20034;-68
2022/09/05 01:17:40;;;;;;;5.05;4.15;;;18.60;99.90;;;;;;5032777;28;20484;-68
2022/09/05 01:20:19;;;;;;;4.57;3.97;;;18.60;99.90;;;;;;5032545;28;20050;-68
2022/09/05 01:23:26;;;;;;;6.43;3.92;;;18.50;99.90;;;;;;5033513;28;20099;-68
2022/09/05 01:26:05;;;;;;;4.40;4.00;;;18.60;99.90;;;;;;5011290;28;20042;-68
2022/09/05 01:28:57;;;;;;;9.07;4.43;;;18.50;99.90;;;;;;4995231;28;20057;-68
2022/09/05 01:31:50;;;;;;;7.35;4.40;;;18.40;99.90;;;;;;5021893;28;20050;-68
2022/09/05 01:34:29;;;;;;;6.80;4.88;;;18.40;99.90;;;;;;5032093;28;20073;-68
2022/09/05 01:37:12;;;;;;;9.93;4.78;;;18.50;99.90;;;;;;5033360;28;20099;-68
2022/09/05 01:39:52;;;;;;;6.20;4.47;;;18.40;99.90;;;;;;5033762;28;20384;-68
2022/09/05 01:42:35;;;;;;;4.60;4.13;;;18.40;99.90;;;;;;5032555;28;20056;-68
2022/09/05 01:45:10;;;;;;;5.30;4.45;;;18.40;99.90;;;;;;5031780;28;20038;-68
2022/09/05 01:47:50;;;;;;;7.10;4.45;;;18.40;99.90;;;;;;5033179;28;20513;-68
2022/09/05 01:50:33;;;;;;;7.60;4.50;;;18.40;99.90;;;;;;5033512;28;20132;-68
2022/09/05 01:53:08;;;;;;;8.65;4.72;;;18.40;99.90;;;;;;5033229;28;20403;-68
2022/09/05 01:56:14;;;;;;;5.95;4.85;;;18.40;99.90;;;;;;5031458;28;20495;-68
2022/09/05 01:59:02;;;;;;;9.95;4.95;;;18.30;99.90;;;;;;5011877;28;20537;-68
2022/09/05 02:01:48;;;;;;;7.40;4.85;;;18.30;99.90;;;;;;5033003;28;20042;-68
2022/09/05 02:04:38;;;;;;;4.88;4.38;;;18.30;99.90;;;;;;5032806;28;20033;-68
2022/09/05 02:07:32;;;;;;;6.65;4.78;;;18.20;99.90;;;;;;5032460;28;20041;-68
2022/09/05 02:10:35;;;;;;;9.13;4.95;;;18.20;99.90;;;;;;5032862;28;20042;-68
2022/09/05 02:13:12;;;;;;;;;;;18.20;99.90;;;;;;5033322;28;20380;-68
2022/09/05 02:15:46;;;;;;;7.88;5.10;;;18.20;99.90;;;;;;5031195;28;19921;-68
2022/09/05 02:18:22;;;;;;;10.15;5.20;;;18.10;99.90;;;;;;5031421;28;20041;-68
2022/09/05 02:21:01;;;;;;;6.72;5.35;;;18.20;99.90;;;;;;5031456;28;20049;-68
2022/09/05 02:23:47;;;;;;;7.22;4.90;;;18.20;99.90;;;;;;5032379;28;20049;-68
2022/09/05 02:26:49;;;;;;;9.27;5.05;;;18.20;99.90;;;;;;5048204;28;20423;-68
2022/09/05 02:29:38;;;;;;;8.02;4.80;;;18.20;99.90;;;;;;5010144;28;20104;-68
2022/09/05 02:32:40;;;;;;;8.25;5.05;;;18.20;99.90;;;;;;5009756;28;20042;-68
2022/09/05 02:35:18;;;;;;;6.20;5.22;;;18.20;99.90;;;;;;4983411;28;20053;-68
2022/09/05 02:37:50;;;;;;;8.40;4.97;;;18.10;99.90;;;;;;4993745;28;20579;-68
2022/09/05 02:40:27;;;;;;;5.27;4.77;;;18.10;99.90;;;;;;4993782;28;20089;-68
2022/09/05 02:43:19;;;;;;;7.68;5.13;;;18.10;99.90;;;;;;5010017;28;20407;-67
2022/09/05 02:46:06;;;;;;;10.65;5.60;;;18.00;99.90;;;;;;5009808;28;20056;-68
2022/09/05 02:48:50;;;;;;;8.00;5.25;;;18.00;99.90;;;;;;5010181;28;20037;-68
2022/09/05 02:51:28;;;;;;;8.48;5.75;;;17.90;99.90;;;;;;5010102;28;20078;-68
2022/09/05 02:54:05;;;;;;;5.88;5.28;;;18.10;99.90;;;;;;5009488;28;20133;-68
2022/09/05 02:56:55;;;;;;;6.72;5.55;;;18.00;99.90;;;;;;5010103;28;20046;-68
2022/09/05 02:59:45;;;;;;;9.35;5.15;;;18.00;99.90;;;;;;5009827;28;20053;-68
2022/09/05 03:02:42;;;;;;;8.77;4.97;;;17.90;99.90;;;;;;4993428;28;20066;-68
2022/09/05 03:05:17;;;;;;;5.90;5.18;;;17.90;99.90;;;;;;5013497;28;20057;-68
2022/09/05 03:07:53;;;;;;;7.97;5.60;;;17.90;99.90;;;;;;5031877;28;20037;-68
2022/09/05 03:10:55;;;;;;;8.35;6.03;;;17.90;99.90;;;;;;5031906;28;20041;-68
2022/09/05 03:13:21;;;;;;;;;;;17.90;99.90;;;;;;5032188;28;20045;-68
2022/09/05 03:16:31;;;;;;;6.50;5.57;;;17.80;99.90;;;;;;5030301;28;19917;-68
2022/09/05 03:19:17;;;;;;;6.78;5.53;;;17.80;99.90;;;;;;5029589;28;20103;-68
2022/09/05 03:21:58;;;;;;;9.18;5.60;;;17.80;99.90;;;;;;5029532;28;20045;-68
2022/09/05 03:24:32;;;;;;;9.45;5.72;;;17.70;99.90;;;;;;5029170;28;20049;-68
2022/09/05 03:27:29;;;;;;;5.88;5.38;;;17.80;99.90;;;;;;5031100;28;20487;-68
2022/09/05 03:30:23;;;;;;;6.90;5.82;;;17.70;99.90;;;;;;5030314;28;20037;-67
2022/09/05 03:33:25;;;;;;;7.05;6.07;;;17.70;99.90;;;;;;5015003;28;20053;-67
2022/09/05 03:36:26;;;;;;;11.63;6.15;;;17.60;99.90;;;;;;5030355;28;20048;-68
2022/09/05 03:39:06;;;;;;;8.07;5.65;;;17.60;99.90;;;;;;5031322;28;20068;-67
2022/09/05 03:41:53;;;;;;;13.35;6.57;;;17.60;99.90;;;;;;5031531;28;20096;-68
2022/09/05 03:44:49;;;;;;;12.13;6.43;;;17.60;99.90;;;;;;5029861;28;20037;-67
2022/09/05 03:47:30;;;;;;;9.68;6.25;;;17.60;99.90;;;;;;5030382;28;20094;-68
2022/09/05 03:50:26;;;;;;;9.48;6.07;;;17.60;99.90;;;;;;5031274;28;20561;-67
2022/09/05 03:53:14;;;;;;;10.43;5.70;;;17.50;99.90;;;;;;5031381;28;20415;-68
2022/09/05 03:55:45;;;;;;;8.57;7.13;;;17.50;99.90;;;;;;5030983;28;20113;-68
2022/09/05 03:58:38;;;;;;;9.50;6.60;;;17.60;99.90;;;;;;5031421;28;20050;-67
2022/09/05 04:01:22;;;;;;;8.45;6.40;;;17.50;99.90;;;;;;5031178;28;20507;-68
2022/09/05 04:03:57;;;;;;;9.32;6.47;;;17.60;99.90;;;;;;5029550;28;20517;-67
2022/09/05 04:06:32;;;;;;;10.82;6.47;;;17.50;99.90;;;;;;5035463;28;20045;-67
2022/09/05 04:09:15;;;;;;;9.00;6.53;;;17.50;99.90;;;;;;5035038;28;20042;-68
2022/09/05 04:11:48;;;;;;;10.15;6.78;;;17.50;99.90;;;;;;5033962;28;20041;-67
2022/09/05 04:14:56;;;;;;;11.60;6.55;;;17.50;99.90;;;;;;5034810;28;20048;-67
2022/09/05 04:17:44;;;;;;;9.27;6.90;;;17.40;99.90;;;;;;5031974;28;20418;-67
2022/09/05 04:20:21;;;;;;;7.65;6.68;;;17.40;99.90;;;;;;5035016;28;20048;-67
2022/09/05 04:23:29;;;;;;;8.32;6.07;;;17.30;99.90;;;;;;5033494;28;20579;-67
2022/09/05 04:26:19;;;;;;;7.28;6.57;;;17.30;99.90;;;;;;5033480;28;20057;-67
2022/09/05 04:28:51;;;;;;;11.82;6.90;;;17.30;99.90;;;;;;5033574;28;20522;-68
2022/09/05 04:31:33;;;;;;;8.63;6.85;;;17.30;99.90;;;;;;5034457;28;20445;-67
2022/09/05 04:34:14;;;;;;;;;;;17.30;99.90;;;;;;5034843;28;20045;-68
2022/09/05 04:36:42;;;;;;;11.93;6.93;;;17.20;99.90;;;;;;5033415;28;19946;-68
2022/09/05 04:39:24;;;;;;;12.95;6.70;;;17.20;99.90;;;;;;5034368;28;20116;-68
2022/09/05 04:42:15;;;;;;;10.93;6.63;;;17.20;99.90;;;;;;5034682;28;20044;-68
2022/09/05 04:44:47;;;;;;;12.32;7.15;;;17.20;99.90;;;;;;5034228;28;20045;-68
2022/09/05 04:47:18;;;;;;;9.82;6.93;;;17.20;99.90;;;;;;5016724;28;20492;-68
2022/09/05 04:49:59;;;;;;;10.55;7.40;;;17.10;99.90;;;;;;5033378;28;20038;-68
2022/09/05 04:52:43;;;;;;;10.48;6.97;;;17.10;99.90;;;;;;5031819;28;20120;-68
2022/09/05 04:55:19;;;;;;;10.30;7.00;;;17.10;99.90;;;;;;5031641;28;20045;-68
2022/09/05 04:58:05;;;;;;;9.48;7.00;;;17.10;99.90;;;;;;5032935;28;20049;-68
2022/09/05 05:00:41;;;;;;;9.60;7.55;;;17.00;99.90;;;;;;5031752;28;20076;-67
2022/09/05 05:03:21;;;;;;;9.95;7.35;;;17.00;99.90;;;;;;5033031;28;20045;-67
2022/09/05 05:05:46;;;;;;;9.15;7.22;;;17.00;99.90;;;;;;5032502;28;20041;-67
2022/09/05 05:08:12;;;;;;;8.75;7.13;;;17.00;99.90;;;;;;5032715;28;20042;-68
2022/09/05 05:10:52;;;;;;;10.50;7.20;;;17.00;99.90;;;;;;5034171;28;20033;-68
2022/09/05 05:13:42;;;;;;;10.85;7.65;;;17.00;99.90;;;;;;5016095;28;20117;-68
2022/09/05 05:16:25;;;;;;;8.90;7.40;;;17.00;99.90;;;;;;5032518;28;20558;-68
2022/09/05 05:19:17;;;;;;;7.80;7.00;;;16.90;99.90;;;;;;5034164;28;20042;-67
2022/09/05 05:21:47;;;;;;;8.60;7.70;;;16.90;99.90;;;;;;5029659;28;20059;-67
2022/09/05 05:24:16;;;;;;;11.27;7.95;;;16.90;99.90;;;;;;5032212;28;20299;-68
2022/09/05 05:27:03;;;;;;;8.65;7.75;;;17.00;99.90;;;;;;5032420;28;20521;-68
2022/09/05 05:29:39;;;;;;;13.02;7.45;;;16.90;99.90;;;;;;5033817;28;20033;-68
2022/09/05 05:32:06;;;;;;;12.77;8.43;;;16.90;99.90;;;;;;5033256;28;20047;-67
2022/09/05 05:34:45;;;;;;;9.85;7.75;;;16.90;99.90;;;;;;5033149;28;20037;-68
2022/09/05 05:37:41;;;;;;;10.48;7.55;;;16.90;99.90;;;;;;5032477;28;20049;-68
2022/09/05 05:40:17;;;;;;;11.15;7.72;;;16.90;99.90;;;;;;5029486;28;20065;-68
2022/09/05 05:42:45;;;;;;;13.38;8.00;;;17.00;99.90;;;;;;5033318;28;20037;-68
2022/09/05 05:45:23;;;;;;;11.50;7.65;;;16.90;99.90;;;;;;5031624;28;20045;-67
2022/09/05 05:48:03;;;;;;;10.80;7.72;;;16.90;99.90;;;;;;5033579;28;20116;-68
2022/09/05 05:50:39;;;;;;;9.88;7.38;;;17.00;99.90;;;;;;5033406;28;20029;-68
2022/09/05 05:53:29;;;;;;;14.20;8.73;;;17.00;99.90;;;;;;5033242;28;20044;-68
2022/09/05 05:56:26;;;;;;;9.32;8.25;;;17.00;99.90;;;;;;5033167;28;20047;-68
2022/09/05 05:59:21;;;;;;;10.75;8.07;;;17.10;99.90;;;;;;5033244;28;20040;-67
2022/09/05 06:02:17;;;;;;;10.27;8.57;;;17.00;99.90;;;;;;5032152;28;20171;-67
2022/09/05 06:04:51;;;;;;;10.70;8.20;;;17.00;99.90;;;;;;5031387;28;20042;-67
2022/09/05 06:07:24;;;;;;;13.38;8.93;;;17.00;99.90;;;;;;5033001;28;20454;-68
2022/09/05 06:10:43;;;;;;;9.85;8.80;;;17.00;99.90;;;;;;5031759;28;20495;-67
2022/09/05 06:13:53;;;;;;;17.75;8.63;;;17.10;99.90;;;;;;5032876;28;20037;-67
2022/09/05 06:16:30;;;;;;;10.45;8.38;;;17.20;99.90;;;;;;5032766;28;20084;-68
2022/09/05 06:19:14;;;;;;;13.90;8.65;;;17.20;99.90;;;;;;5032708;28;20045;-67
2022/09/05 06:22:02;;;;;;;9.48;8.35;;;17.30;99.90;;;;;;5032715;28;20046;-67
2022/09/05 06:25:06;;;;;;;14.52;8.98;;;17.40;99.90;;;;;;5032400;28;20095;-67
2022/09/05 06:27:52;;;;;;;11.63;8.43;;;17.50;99.90;;;;;;5030934;28;20076;-67
2022/09/05 06:30:20;;;;;;;10.68;9.57;;;17.60;99.90;;;;;;5032586;28;20080;-67
2022/09/05 06:33:06;;;;;;;11.77;8.52;;;17.70;99.90;;;;;;5032003;28;20045;-67
2022/09/05 06:35:40;;;;;;;14.98;8.40;;;17.80;99.90;;;;;;5031120;28;20502;-67
2022/09/05 06:38:26;;;;;;;10.88;8.70;;;17.90;99.90;;;;;;5032461;28;20050;-67
2022/09/05 06:41:07;;;;;;;11.70;8.55;;;18.00;99.90;;;;;;5032365;28;20088;-67
2022/09/05 06:43:51;;;;;;;14.38;9.02;;;18.10;99.90;;;;;;5032312;28;20051;-68
2022/09/05 06:46:36;;;;;;;15.55;9.15;;;18.20;99.90;;;;;;5032343;28;20399;-67
2022/09/05 06:49:16;;;;;;;12.88;9.30;;;18.20;99.90;;;;;;5031051;28;20088;-67
2022/09/05 06:52:26;;;;;;;14.43;9.25;;;18.30;99.90;;;;;;5032079;28;20413;-67
2022/09/05 06:55:15;;;;;;;14.80;9.43;;;18.40;99.90;;;;;;5030568;28;20116;-67
2022/09/05 06:58:18;;;;;;;12.75;9.63;;;18.50;99.90;;;;;;5031935;28;20033;-68
2022/09/05 07:00:44;;;;;;;;;;;18.50;99.90;;;;;;5031046;28;20037;-67
2022/09/05 07:03:31;;;;;;;15.30;9.18;;;18.60;99.90;;;;;;5031931;28;20280;-67
2022/09/05 07:06:15;;;;;;;15.43;8.65;;;18.70;99.90;;;;;;5030523;28;20060;-67
2022/09/05 07:08:50;;;;;;;10.90;9.27;;;18.80;99.90;;;;;;5031851;28;20037;-67
2022/09/05 07:11:19;;;;;;;12.68;9.65;;;18.90;99.90;;;;;;5031756;28;20117;-67
2022/09/05 07:14:15;;;;;;;14.25;9.20;;;19.00;99.90;;;;;;5029975;28;20041;-66
2022/09/05 07:16:51;;;;;;;15.73;9.68;;;19.00;99.90;;;;;;5031748;28;20081;-68
2022/09/05 07:19:26;;;;;;;12.27;8.95;;;19.20;99.90;;;;;;5031909;28;20041;-67
2022/09/05 07:22:13;;;;;;;14.13;8.63;;;19.20;99.90;;;;;;5030035;28;20092;-67
2022/09/05 07:24:44;;;;;;;18.08;9.02;;;19.30;99.90;;;;;;5031275;28;20037;-66
2022/09/05 07:27:13;;;;;;;11.25;8.45;;;19.30;99.90;;;;;;5031767;28;20081;-69
2022/09/05 07:29:43;;;;;;;15.52;8.85;;;19.40;99.90;;;;;;5031075;28;20111;-67
2022/09/05 07:32:16;;;;;;;14.73;9.18;;;19.40;99.90;;;;;;5031004;28;20053;-68
2022/09/05 07:34:42;;;;;;;;;;;19.50;99.90;;;;;;5031669;28;20038;-68
2022/09/05 07:37:25;;;;;;;13.50;8.55;;;19.60;99.90;;;;;;5031664;28;19921;-68
2022/09/05 07:40:13;;;;;;;14.48;8.82;;;19.60;99.90;;;;;;5029267;28;20107;-68
2022/09/05 07:43:04;;;;;;;14.55;8.25;;;19.70;99.90;;;;;;5029983;28;20041;-69
2022/09/05 07:45:31;;;;;;;15.25;8.10;;;19.80;99.90;;;;;;5031084;28;20038;-69
2022/09/05 07:48:04;;;;;;;16.10;8.80;;;19.90;99.90;;;;;;5030268;28;20044;-69
2022/09/05 07:50:32;;;;;;;11.48;8.30;;;20.00;99.90;;;;;;5030194;28;20091;-69
2022/09/05 07:53:03;;;;;;;17.80;7.78;;;20.10;99.90;;;;;;5030190;28;20491;-69
2022/09/05 07:55:34;;;;;;;14.48;8.20;;;20.30;99.90;;;;;;5029618;28;20091;-69
2022/09/05 07:58:06;;;;;;;13.95;8.35;;;20.30;99.90;;;;;;5030266;28;20108;-70
2022/09/05 08:00:34;;;;;;;12.65;8.65;;;20.30;99.90;;;;;;5030012;28;20128;-70
2022/09/05 08:03:09;;;;;;;11.43;7.70;;;20.40;99.90;;;;;;5028932;28;20116;-70
2022/09/05 08:05:42;;;;;;;9.75;8.75;;;20.50;99.90;;;;;;5024564;28;20037;-68
2022/09/05 08:08:15;;;;;;;12.80;8.70;;;20.50;99.90;;;;;;5010821;28;20060;-68
2022/09/05 08:10:46;;;;;;;16.15;8.27;;;20.60;99.90;;;;;;5010254;28;20049;-68
2022/09/05 08:13:17;;;;;;;12.73;8.67;;;20.70;99.90;;;;;;5009780;28;20050;-69
2022/09/05 08:15:48;;;;;;;13.50;7.65;;;20.80;99.90;;;;;;5011013;28;20281;-70
2022/09/05 08:18:35;;;;;;;12.25;7.65;;;21.00;99.90;;;;;;5011272;28;20042;-70
2022/09/05 08:21:12;;;;;;;9.27;7.65;;;21.00;99.90;;;;;;5011079;28;20515;-69
2022/09/05 08:23:56;;;;;;;10.30;8.02;;;21.10;99.90;;;;;;5009789;28;20042;-70
2022/09/05 08:26:37;;;;;;;15.43;9.50;;;21.10;99.90;;;;;;5010091;28;20050;-70
2022/09/05 08:29:40;;;;;;;8.55;7.65;;;21.30;99.90;;;;;;5009671;28;20077;-70
2022/09/05 08:32:07;;;;;;;10.18;7.05;;;21.30;99.90;;;;;;4991675;28;20046;-70
2022/09/05 08:35:01;;;;;;;9.07;7.65;;;21.40;99.90;;;;;;4991984;28;20085;-70
2022/09/05 08:37:30;;;;;;;11.95;7.30;;;21.50;99.90;;;;;;5002768;28;20423;-70
2022/09/05 08:40:14;;;;;;;10.13;6.90;;;21.60;99.90;;;;;;4992131;28;20054;-70
2022/09/05 08:43:07;;;;;;;7.75;6.95;;;21.60;99.90;;;;;;4992148;28;20081;-70
2022/09/05 08:45:43;;;;;;;9.93;6.63;;;21.70;99.90;;;;;;4975742;28;20496;-70
2022/09/05 08:48:36;;;;;;;9.82;6.47;;;22.00;99.90;;;;;;5008766;28;20468;-70
2022/09/05 08:51:19;;;;;;;9.95;7.07;;;22.00;99.90;;;;;;4977855;28;20558;-70
2022/09/05 08:54:00;;;;;;;11.75;6.75;;;22.10;99.90;;;;;;4995417;28;20069;-70
2022/09/05 08:56:55;;;;;;;14.10;6.68;;;22.20;99.90;;;;;;4995691;28;20132;-70
2022/09/05 08:59:42;;;;;;;12.95;6.25;;;22.30;99.90;;;;;;4995767;28;20057;-70
2022/09/05 09:02:16;;;;;;;12.93;6.13;;;22.40;99.90;;;;;;4995633;28;20061;-70
2022/09/05 09:05:09;;;;;;;18.55;7.10;;;22.50;99.90;;;;;;5011729;28;20049;-70
2022/09/05 09:07:43;;;;;;;11.65;5.40;;;22.50;99.90;;;;;;5013333;28;20096;-70
2022/09/05 09:10:52;;;;;;;10.68;6.20;;;22.80;99.90;;;;;;5014165;28;20044;-70
2022/09/05 09:13:25;;;;;;;9.43;6.53;;;22.70;99.90;;;;;;5014311;28;20040;-70
2022/09/05 09:16:03;;;;;;;11.23;5.80;;;22.90;99.90;;;;;;5014124;28;20049;-70
2022/09/05 09:18:47;;;;;;;13.82;6.35;;;23.10;99.90;;;;;;5014185;28;20511;-70
2022/09/05 09:21:26;;;;;;;12.63;6.65;;;23.00;99.90;;;;;;5014086;28;20065;-70
2022/09/05 09:24:16;;;;;;;12.85;5.97;;;23.10;99.90;;;;;;5012551;28;20037;-70
2022/09/05 09:26:54;;;;;;;16.23;7.38;;;23.20;99.90;;;;;;5012966;28;20488;-70
2022/09/05 09:29:22;;;;;;;17.33;6.90;;;23.10;99.90;;;;;;5012779;28;20061;-70
2022/09/05 09:32:05;;;;;;;23.02;6.75;;;23.20;99.90;;;;;;4996585;28;20088;-70
2022/09/05 09:34:53;;;;;;;17.27;6.38;;;23.20;99.90;;;;;;5012217;28;20068;-70
2022/09/05 09:37:31;;;;;;;12.02;6.22;;;23.20;99.90;;;;;;5012327;28;20037;-70
2022/09/05 09:40:35;;;;;;;19.17;6.25;;;23.30;99.90;;;;;;5012507;28;20152;-70
2022/09/05 09:43:26;;;;;;;10.98;5.30;;;23.50;99.90;;;;;;5013604;28;20446;-70
2022/09/05 09:46:01;;;;;;;8.73;5.85;;;23.60;99.90;;;;;;5012038;28;20049;-70
2022/09/05 09:48:52;;;;;;;13.07;6.75;;;23.70;99.90;;;;;;5012324;28;20046;-70
2022/09/05 09:51:29;;;;;;;7.13;5.88;;;23.70;99.90;;;;;;4995942;28;20041;-71
2022/09/05 09:54:01;;;;;;;12.82;5.65;;;23.70;99.90;;;;;;5030663;28;20042;-68
2022/09/05 09:56:31;;;;;;;10.32;6.03;;;23.80;99.90;;;;;;5015405;28;20037;-68
2022/09/05 09:59:41;;;;;;;6.95;5.38;;;23.90;99.90;;;;;;5033305;28;20112;-68
2022/09/05 10:02:20;;;;;;;10.82;5.15;;;23.80;99.90;;;;;;5011234;28;20060;-68
2022/09/05 10:05:11;;;;;;;10.07;5.40;;;24.10;99.90;;;;;;5031448;28;20049;-68
2022/09/05 10:07:55;;;;;;;8.18;4.70;;;24.20;99.90;;;;;;5032992;28;20046;-70
2022/09/05 10:10:33;;;;;;;7.28;4.70;;;24.30;99.90;;;;;;5029625;28;20034;-68
2022/09/05 10:12:58;;;;;;;8.32;4.72;;;24.40;99.90;;;;;;5030945;28;20045;-69
2022/09/05 10:15:33;;;;;;;7.85;4.22;;;24.50;99.90;;;;;;5031013;28;20043;-68
2022/09/05 10:18:29;;;;;;;6.28;4.90;;;24.60;99.90;;;;;;5032959;28;20037;-68
2022/09/05 10:21:24;;;;;;;5.97;3.30;;;24.60;99.90;;;;;;5031479;28;20052;-68
2022/09/05 10:24:21;;;;;;;5.88;3.40;;;24.90;99.90;;;;;;5031044;28;20106;-68
2022/09/05 10:27:13;;;;;;;7.05;3.78;;;24.90;99.50;;;;;;5031225;28;20045;-69
2022/09/05 10:29:39;;;;;;;7.18;3.60;;;25.00;99.90;;;;;;5032799;28;20049;-68
2022/09/05 10:32:07;;;;;;;9.00;3.60;;;25.00;99.90;;;;;;5031215;28;20033;-68
2022/09/05 10:35:05;;;;;;;4.60;3.20;;;25.10;99.60;;;;;;5031072;28;20392;-68
2022/09/05 10:37:43;;;;;;;7.97;3.60;;;25.20;99.30;;;;;;5032035;28;20045;-68
2022/09/05 10:40:13;;;;;;;5.28;3.40;;;25.20;98.50;;;;;;5037982;28;20041;-68
2022/09/05 10:42:44;;;;;;;4.95;3.38;;;25.30;98.90;;;;;;5028588;28;20129;-68
2022/09/05 10:45:27;;;;;;;8.13;3.90;;;25.20;98.50;;;;;;5028593;28;20080;-68
2022/09/05 10:48:10;;;;;;;5.82;4.28;;;25.50;98.60;;;;;;5030199;28;20069;-68
2022/09/05 10:50:42;;;;;;;4.82;3.15;;;25.40;98.10;;;;;;5032149;28;20377;-68
2022/09/05 10:53:57;;;;;;;8.38;4.07;;;25.60;98.10;;;;;;5030625;28;20053;-68
2022/09/05 10:56:28;;;;;;;4.88;3.38;;;25.50;97.60;;;;;;5026015;28;20049;-68
2022/09/05 10:59:02;;;;;;;6.25;2.92;;;25.50;97.90;;;;;;5030631;28;20045;-68
2022/09/05 11:01:47;;;;;;;3.78;3.28;;;25.60;97.80;;;;;;5031966;28;20403;-68
2022/09/05 11:04:35;;;;;;;7.30;3.03;;;25.60;96.90;;;;;;5046142;28;20033;-68
2022/09/05 11:07:46;;;;;;;5.20;3.05;;;25.80;96.90;;;;;;5050394;28;20037;-68
2022/09/05 11:10:43;;;;;;;3.42;3.10;;;26.00;96.10;;;;;;5032310;28;20044;-68
2022/09/05 11:13:36;;;;;;;7.63;3.20;;;26.00;96.00;;;;;;5049863;28;20049;-68
2022/09/05 11:16:17;;;;;;;4.60;2.78;;;26.10;96.90;;;;;;5050107;28;20048;-68
2022/09/05 11:19:24;;;;;;;2.78;2.42;;;26.30;96.00;;;;;;5050529;28;20049;-68
2022/09/05 11:22:06;;;;;;;9.25;3.42;;;26.20;96.70;;;;;;5051391;28;20144;-67
2022/09/05 11:24:46;;;;;;;7.30;3.13;;;26.20;96.20;;;;;;5051097;28;20518;-68
2022/09/05 11:27:31;;;;;;;7.30;2.40;;;26.30;95.60;;;;;;5050169;28;20091;-68
2022/09/05 11:30:12;;;;;;;5.13;2.10;;;26.30;95.60;;;;;;5050017;28;20041;-68
2022/09/05 11:33:08;;;;;;;5.67;2.80;;;26.40;95.60;;;;;;5050089;28;20050;-67
2022/09/05 11:35:51;;;;;;;7.35;2.60;;;26.50;95.30;;;;;;5050047;28;20368;-70
2022/09/05 11:38:54;;;;;;;2.40;2.20;;;26.40;95.20;;;;;;5051104;28;20494;-69
2022/09/05 11:41:50;;;;;;;4.82;2.30;;;26.50;95.30;;;;;;5051300;28;20045;-70
2022/09/05 11:44:28;;;;;;;3.10;2.47;;;26.60;95.40;;;;;;5050747;28;20032;-69
2022/09/05 11:47:39;;;;;;;5.40;2.53;;;26.80;94.60;;;;;;5049959;28;20111;-70
2022/09/05 11:50:35;;;;;;;5.18;2.60;;;26.70;94.40;;;;;;5051172;28;20407;-70
2022/09/05 11:53:22;;;;;;;4.15;2.70;;;26.60;94.80;;;;;;5051111;28;20059;-70
2022/09/05 11:56:04;;;;;;;4.85;2.22;;;26.50;94.60;;;;;;5051057;28;20045;-70
2022/09/05 11:58:59;;;;;;;3.85;2.63;;;26.60;94.30;;;;;;5049919;28;20053;-70
2022/09/05 12:01:53;;;;;;;4.82;2.25;;;26.50;94.90;;;;;;5049987;28;20647;-70
2022/09/05 12:04:36;;;;;;;6.78;2.85;;;26.30;94.00;;;;;;5049296;28;20116;-70
2022/09/05 12:07:24;;;;;;;3.67;2.38;;;26.30;94.20;;;;;;5051205;28;20095;-70
2022/09/05 12:10:21;;;;;;;5.22;2.60;;;26.20;94.00;;;;;;5049843;28;20152;-70
2022/09/05 12:13:24;;;;;;;6.30;2.83;;;26.10;93.90;;;;;;5050043;28;20045;-69
2022/09/05 12:15:50;;;;;;;5.28;2.72;;;26.30;94.50;;;;;;5049574;28;20048;-70
2022/09/05 12:18:35;;;;;;;4.93;2.30;;;26.50;94.20;;;;;;5049845;28;20502;-70
2022/09/05 12:21:11;;;;;;;4.63;3.08;;;26.50;94.00;;;;;;5049765;28;20064;-70
2022/09/05 12:24:14;;;;;;;4.95;2.40;;;26.60;93.50;;;;;;5049670;28;20523;-70
2022/09/05 12:26:49;;;;;;;4.72;2.58;;;26.70;93.70;;;;;;5052733;28;20037;-70
2022/09/05 12:29:20;;;;;;;4.00;2.35;;;26.70;93.90;;;;;;5037258;28;20400;-70
2022/09/05 12:31:52;;;;;;;5.38;2.47;;;26.60;94.20;;;;;;5053530;28;20166;-70
2022/09/05 12:34:50;;;;;;;4.05;2.22;;;26.50;94.20;;;;;;5054255;28;20048;-70
2022/09/05 12:37:57;;;;;;;3.40;2.38;;;26.40;93.70;;;;;;5053363;28;20081;-70
2022/09/05 12:40:32;;;;;;;4.38;2.35;;;26.40;93.40;;;;;;5054278;28;20063;-70
2022/09/05 12:43:04;;;;;;;9.88;2.35;;;26.50;93.40;;;;;;5053140;28;20041;-70
2022/09/05 12:46:08;;;;;;;4.75;2.17;;;26.70;93.40;;;;;;5052988;28;20045;-70
2022/09/05 12:48:57;;;;;;;4.72;2.75;;;26.90;94.00;;;;;;5053158;28;20055;-70
2022/09/05 12:51:29;;;;;;;2.92;2.40;;;27.00;92.80;;;;;;5054717;28;20120;-70
2022/09/05 12:54:02;;;;;;;4.55;2.47;;;27.00;93.40;;;;;;5054239;28;20069;-70
2022/09/05 12:56:42;;;;;;;3.22;2.25;;;27.10;93.50;;;;;;5054501;28;20033;-70
2022/09/05 12:59:17;;;;;;;2.63;2.42;;;27.10;92.40;;;;;;5053327;28;20453;-70
2022/09/05 13:01:44;;;;;;;2.67;2.47;;;27.10;92.50;;;;;;5052848;28;20491;-70
2022/09/05 13:04:23;;;;;;;3.45;2.22;;;27.00;92.80;;;;;;5052491;28;20045;-70
2022/09/05 13:06:57;;;;;;;3.30;2.28;;;26.90;92.30;;;;;;5053102;28;20537;-70
2022/09/05 13:09:29;;;;;;;3.70;2.45;;;26.90;92.60;;;;;;5054078;28;20063;-70
2022/09/05 13:12:03;;;;;;;3.15;2.50;;;26.90;92.20;;;;;;5052732;28;20139;-70
2022/09/05 13:15:05;;;;;;;5.30;2.63;;;26.90;92.00;;;;;;5053707;28;20529;-70
2022/09/05 13:17:37;;;;;;;;;;;27.10;93.00;;;;;;5054442;28;20403;-70
2022/09/05 13:20:24;;;;;;;;;;;27.10;92.60;;;;;;5054574;28;19923;-70
2022/09/05 13:22:51;;;;;;;4.82;2.58;;;27.10;92.20;;;;;;5053968;28;19940;-70
2022/09/05 13:25:25;;;;;;;5.20;2.13;;;27.20;93.10;;;;;;5053844;28;20112;-70
2022/09/05 13:28:00;;;;;;;7.65;2.63;;;27.40;92.40;;;;;;5053002;28;20041;-70
2022/09/05 13:30:26;;;;;;;2.83;2.42;;;27.40;92.20;;;;;;5052541;28;20041;-70
2022/09/05 13:32:55;;;;;;;2.70;2.30;;;27.60;91.90;;;;;;5052421;28;20045;-70
2022/09/05 13:35:35;;;;;;;3.90;2.70;;;27.50;92.20;;;;;;5052029;28;20049;-70
2022/09/05 13:38:15;;;;;;;4.05;2.67;;;27.60;91.00;;;;;;5052444;28;20052;-70
2022/09/05 13:40:49;;;;;;;7.13;2.50;;;27.60;91.60;;;;;;5053574;28;20064;-70
2022/09/05 13:43:21;;;;;;;5.07;2.53;;;27.60;91.80;;;;;;5053181;28;20056;-70
2022/09/05 13:46:15;;;;;;;3.85;2.15;;;27.60;92.10;;;;;;5052149;28;20399;-70
2022/09/05 13:48:54;;;;;;;4.07;2.42;;;27.60;91.10;;;;;;5053456;28;20056;-70
2022/09/05 13:51:45;;;;;;;3.15;2.10;;;27.70;90.90;;;;;;5051985;28;20071;-70
2022/09/05 13:54:47;;;;;;;2.88;2.20;;;27.80;91.70;;;;;;5051909;28;20403;-70
2022/09/05 13:57:29;;;;;;;3.47;2.30;;;27.80;91.30;;;;;;5051937;28;20685;-70
2022/09/05 14:00:18;;;;;;;2.72;2.42;;;27.70;91.60;;;;;;5052005;28;20644;-70
2022/09/05 14:03:34;;;;;;;3.38;1.98;;;27.80;90.60;;;;;;5051044;28;20041;-70
2022/09/05 14:06:24;;;;;;;8.48;2.10;;;27.70;91.60;;;;;;5051765;28;20434;-70
2022/09/05 14:09:19;;;;;;;2.35;2.08;;;27.80;91.30;;;;;;5052844;28;20048;-70